createdAt,value
2022-08-17T00:02:25.265Z,16.85
2022-08-17T00:04:54.816Z,16.80
2022-08-17T00:07:22.092Z,15.15
2022-08-17T00:09:49.010Z,18.85
2022-08-17T00:12:40.764Z,18.05
2022-08-17T00:15:02.663Z,15.18
2022-08-17T00:17:29.479Z,16.23
2022-08-17T00:19:56.389Z,18.85
2022-08-17T00:22:31.451Z,16.33
2022-08-17T00:25:02.792Z,18.27
2022-08-17T00:27:29.667Z,16.25
2022-08-17T00:29:56.890Z,16.08
2022-08-17T00:33:14.483Z,17.83
2022-08-17T00:35:11.872Z,17.67
2022-08-17T00:37:38.794Z,14.00
2022-08-17T00:40:06.777Z,14.90
2022-08-17T00:42:36.732Z,15.52
2022-08-17T00:45:05.733Z,16.40
2022-08-17T00:47:32.555Z,13.82
2022-08-17T00:49:59.472Z,18.02
2022-08-17T00:52:30.601Z,17.67
2022-08-17T00:54:57.519Z,13.90
2022-08-17T00:57:36.522Z,17.38
2022-08-17T01:00:13.285Z,17.95
2022-08-17T01:02:43.213Z,18.95
2022-08-17T01:05:15.479Z,15.65
2022-08-17T01:07:42.601Z,19.05
2022-08-17T01:10:58.194Z,13.98
2022-08-17T01:12:58.481Z,15.93
2022-08-17T01:15:26.069Z,16.05
2022-08-17T01:17:53.294Z,18.02
2022-08-17T01:20:20.493Z,18.73
2022-08-17T01:22:47.344Z,19.48
2022-08-17T01:25:14.237Z,13.55
2022-08-17T01:27:41.949Z,14.27
2022-08-17T01:30:58.856Z,15.95
2022-08-17T01:32:58.156Z,15.52
2022-08-17T01:35:25.076Z,15.23
2022-08-17T01:37:52.425Z,16.90
2022-08-17T01:40:31.452Z,17.88
2022-08-17T01:43:21.683Z,17.60
2022-08-17T01:46:02.686Z,17.80
2022-08-17T01:48:37.574Z,17.88
2022-08-17T01:51:06.547Z,20.85
2022-08-17T01:53:36.985Z,13.75
2022-08-17T01:56:11.396Z,15.82
2022-08-17T01:58:38.463Z,18.50
2022-08-17T02:01:06.288Z,16.83
2022-08-17T02:03:34.710Z,19.83
2022-08-17T02:06:02.015Z,16.95
2022-08-17T02:08:39.340Z,18.25
2022-08-17T02:11:18.446Z,16.92
2022-08-17T02:13:48.549Z,18.55
2022-08-17T02:16:24.730Z,20.05
2022-08-17T02:18:51.859Z,20.52
2022-08-17T02:21:27.167Z,20.33
2022-08-17T02:23:53.982Z,18.75
2022-08-17T02:26:25.559Z,20.80
2022-08-17T02:28:54.505Z,17.70
2022-08-17T02:31:21.394Z,16.50
2022-08-17T02:34:00.209Z,18.48
2022-08-17T02:36:33.233Z,23.43
2022-08-17T02:39:01.701Z,17.77
2022-08-17T02:41:28.589Z,21.70
2022-08-17T02:43:55.734Z,17.33
2022-08-17T02:46:23.029Z,22.00
2022-08-17T02:48:49.931Z,17.20
2022-08-17T02:51:17.103Z,21.38
2022-08-17T02:53:43.956Z,17.88
2022-08-17T02:56:10.788Z,18.52
2022-08-17T02:58:37.718Z,17.13
2022-08-17T03:01:05.845Z,17.65
2022-08-17T03:03:32.712Z,20.20
2022-08-17T03:05:59.569Z,19.70
2022-08-17T03:08:26.350Z,15.80
2022-08-17T03:10:53.670Z,17.45
2022-08-17T03:13:20.956Z,19.60
2022-08-17T03:15:48.820Z,18.08
2022-08-17T03:18:19.326Z,17.77
2022-08-17T03:20:54.559Z,18.60
2022-08-17T03:23:24.249Z,17.98
2022-08-17T03:25:53.618Z,17.33
2022-08-17T03:28:21.792Z,17.98
2022-08-17T03:30:49.247Z,18.55
2022-08-17T03:33:19.971Z,19.23
2022-08-17T03:35:47.341Z,18.63
2022-08-17T03:38:17.495Z,17.98
2022-08-17T03:40:58.058Z,19.08
2022-08-17T03:43:30.811Z,18.85
2022-08-17T03:46:28.233Z,18.20
2022-08-17T03:49:24.089Z,18.75
2022-08-17T03:52:09.638Z,19.17
2022-08-17T03:54:55.185Z,17.80
2022-08-17T03:57:22.467Z,18.73
2022-08-17T03:59:49.900Z,17.45
2022-08-17T04:02:22.044Z,16.23
2022-08-17T04:04:52.366Z,17.73
2022-08-17T04:07:21.689Z,16.90
2022-08-17T04:09:48.917Z,15.50
2022-08-17T04:12:20.645Z,17.55
2022-08-17T04:14:52.609Z,14.80
2022-08-17T04:17:28.385Z,15.35
2022-08-17T04:22:33.292Z,14.55
2022-08-17T04:25:15.785Z,16.33
2022-08-17T04:27:42.699Z,15.88
2022-08-17T04:30:10.684Z,18.13
2022-08-17T04:33:19.246Z,14.20
2022-08-17T04:35:51.080Z,15.48
2022-08-17T04:38:20.015Z,17.15
2022-08-17T04:41:05.669Z,13.57
2022-08-17T04:43:32.774Z,17.58
2022-08-17T04:46:01.585Z,18.00
2022-08-17T04:48:36.918Z,16.45
2022-08-17T04:51:10.374Z,17.63
2022-08-17T04:53:42.022Z,18.95
2022-08-17T04:56:16.140Z,19.65
2022-08-17T04:58:49.913Z,16.73
2022-08-17T05:01:23.326Z,18.48
2022-08-17T05:03:56.112Z,21.38
2022-08-17T05:06:23.191Z,17.85
2022-08-17T05:08:50.242Z,16.52
2022-08-17T05:11:17.321Z,19.20
2022-08-17T05:13:45.134Z,25.02
2022-08-17T05:16:12.046Z,16.92
2022-08-17T05:18:39.386Z,18.00
2022-08-17T05:21:06.932Z,17.73
2022-08-17T05:23:42.730Z,21.42
2022-08-17T05:26:23.128Z,18.65
2022-08-17T05:28:52.906Z,20.80
2022-08-17T05:31:21.453Z,17.75
2022-08-17T05:33:49.567Z,20.13
2022-08-17T05:36:42.546Z,25.05
2022-08-17T05:39:04.017Z,19.15
2022-08-17T05:41:31.152Z,20.30
2022-08-17T05:43:58.114Z,21.98
2022-08-17T05:46:29.797Z,21.70
2022-08-17T05:48:59.244Z,23.98
2022-08-17T05:51:35.527Z,25.13
2022-08-17T05:54:27.153Z,26.00
2022-08-17T05:57:20.989Z,24.02
2022-08-17T06:00:13.069Z,27.63
2022-08-17T06:02:45.581Z,21.55
2022-08-17T06:05:35.005Z,20.25
2022-08-17T06:08:57.374Z,25.13
2022-08-17T06:11:38.569Z,25.23
2022-08-17T06:14:21.058Z,21.45
2022-08-17T06:16:51.899Z,23.02
2022-08-17T06:19:44.527Z,22.25
2022-08-17T06:22:13.695Z,28.60
2022-08-17T06:25:10.188Z,31.08
2022-08-17T06:27:44.504Z,33.42
2022-08-17T06:30:20.581Z,31.35
2022-08-17T06:32:49.158Z,31.00
2022-08-17T06:35:30.052Z,36.90
2022-08-17T06:37:59.618Z,34.80
2022-08-17T06:40:45.792Z,38.55
2022-08-17T06:43:34.295Z,40.95
2022-08-17T06:46:28.940Z,37.17
2022-08-17T06:49:20.305Z,41.58
2022-08-17T06:52:46.860Z,41.58
2022-08-17T06:55:18.126Z,42.30
2022-08-17T06:57:51.448Z,54.08
2022-08-17T07:00:22.490Z,51.85
2022-08-17T07:03:11.130Z,52.38
2022-08-17T07:06:00.730Z,53.97
2022-08-17T07:09:01.590Z,56.22
2022-08-17T07:11:48.635Z,56.38
2022-08-17T07:14:24.445Z,47.15
2022-08-17T07:16:53.357Z,50.55
2022-08-17T07:19:22.789Z,51.95
2022-08-17T07:22:00.833Z,50.88
2022-08-17T07:24:45.137Z,51.70
2022-08-17T07:27:16.340Z,47.85
2022-08-17T07:30:10.964Z,47.92
2022-08-17T07:32:51.339Z,46.03
2022-08-17T07:35:21.332Z,52.65
2022-08-17T07:38:02.699Z,48.08
2022-08-17T07:40:33.514Z,47.97
2022-08-17T07:43:05.714Z,46.88
2022-08-17T07:46:12.241Z,51.20
2022-08-17T07:48:41.157Z,48.45
2022-08-17T07:51:34.442Z,53.72
2022-08-17T07:54:14.427Z,47.30
2022-08-17T07:56:53.009Z,43.55
2022-08-17T07:59:40.701Z,46.25
2022-08-17T08:02:33.725Z,41.58
2022-08-17T08:05:46.654Z,47.83
2022-08-17T08:08:37.707Z,44.97
2022-08-17T08:11:15.181Z,45.00
2022-08-17T08:13:45.525Z,47.40
2022-08-17T08:16:24.595Z,51.83
2022-08-17T08:19:01.485Z,55.97
2022-08-17T08:21:50.751Z,52.13
2022-08-17T08:24:55.932Z,47.88
2022-08-17T08:27:37.340Z,57.10
2022-08-17T08:30:10.240Z,48.15
2022-08-17T08:32:48.092Z,49.58
2022-08-17T08:35:36.089Z,48.00
2022-08-17T08:38:07.819Z,46.22
2022-08-17T08:40:56.749Z,43.75
2022-08-17T08:43:29.676Z,47.95
2022-08-17T08:46:05.724Z,42.30
2022-08-17T08:48:58.420Z,47.10
2022-08-17T08:52:01.649Z,46.00
2022-08-17T08:54:40.140Z,46.55
2022-08-17T08:57:33.039Z,38.60
2022-08-17T09:00:18.482Z,41.87
2022-08-17T09:03:04.077Z,39.13
2022-08-17T09:05:49.580Z,39.95
2022-08-17T09:08:32.394Z,39.08
2022-08-17T09:11:12.064Z,35.50
2022-08-17T09:13:46.716Z,44.95
2022-08-17T09:16:45.072Z,39.75
2022-08-17T09:19:19.656Z,36.95
2022-08-17T09:21:54.818Z,41.33
2022-08-17T09:24:31.589Z,39.88
2022-08-17T09:27:04.183Z,38.75
2022-08-17T09:29:35.324Z,37.00
2022-08-17T09:32:38.483Z,34.78
2022-08-17T09:35:25.157Z,30.83
2022-08-17T09:38:07.088Z,33.05
2022-08-17T09:41:10.172Z,33.03
2022-08-17T09:43:57.171Z,37.58
2022-08-17T09:46:48.131Z,31.20
2022-08-17T09:49:43.021Z,31.67
2022-08-17T09:52:22.380Z,27.65
2022-08-17T09:54:51.621Z,27.42
2022-08-17T09:57:31.085Z,28.88
2022-08-17T10:00:16.787Z,27.17
2022-08-17T10:03:03.109Z,24.40
2022-08-17T10:05:55.007Z,27.35
2022-08-17T10:08:32.562Z,22.02
2022-08-17T10:11:08.758Z,26.45
2022-08-17T10:13:53.459Z,25.08
2022-08-17T10:16:35.670Z,23.63
2022-08-17T10:19:28.367Z,24.13
2022-08-17T10:22:14.720Z,30.92
2022-08-17T10:25:22.748Z,22.73
2022-08-17T10:27:57.240Z,27.13
2022-08-17T10:30:27.366Z,23.50
2022-08-17T10:33:05.551Z,21.63
2022-08-17T10:35:57.185Z,20.75
2022-08-17T10:38:46.225Z,21.17
2022-08-17T10:41:29.487Z,20.17
2022-08-17T10:44:37.995Z,20.08
2022-08-17T10:47:14.655Z,19.08
2022-08-17T10:49:49.547Z,19.40
2022-08-17T10:52:19.542Z,18.67
2022-08-17T10:55:09.353Z,20.52
2022-08-17T10:57:45.296Z,15.15
2022-08-17T11:00:23.020Z,19.10
2022-08-17T11:02:57.833Z,17.17
2022-08-17T11:05:40.210Z,17.60
2022-08-17T11:08:26.935Z,19.80
2022-08-17T11:11:00.264Z,18.80
2022-08-17T11:13:31.440Z,18.23
2022-08-17T11:16:19.801Z,20.58
2022-08-17T11:19:14.791Z,20.13
2022-08-17T11:21:59.791Z,16.92
2022-08-17T11:24:34.901Z,18.55
2022-08-17T11:27:12.569Z,14.80
2022-08-17T11:30:06.255Z,15.57
2022-08-17T11:32:47.431Z,15.30
2022-08-17T11:35:15.873Z,15.38
2022-08-17T11:38:04.249Z,17.83
2022-08-17T11:40:41.320Z,17.10
2022-08-17T11:43:32.410Z,12.25
2022-08-17T11:46:11.714Z,12.85
2022-08-17T11:49:06.511Z,12.52
2022-08-17T11:51:55.795Z,14.32
2022-08-17T11:54:34.179Z,10.90
2022-08-17T11:57:21.701Z,9.95
2022-08-17T11:59:48.735Z,12.05
2022-08-17T12:02:33.026Z,11.20
2022-08-17T12:05:12.533Z,12.40
2022-08-17T12:07:51.945Z,12.10
2022-08-17T12:10:21.587Z,12.05
2022-08-17T12:12:48.966Z,13.40
2022-08-17T12:15:21.854Z,10.50
2022-08-17T12:17:53.695Z,10.95
2022-08-17T12:20:30.685Z,10.40
2022-08-17T12:23:19.600Z,13.52
2022-08-17T12:25:49.657Z,11.70
2022-08-17T12:28:36.750Z,13.13
2022-08-17T12:31:08.359Z,11.45
2022-08-17T12:33:36.462Z,9.63
2022-08-17T12:36:05.429Z,11.32
2022-08-17T12:38:37.017Z,10.68
2022-08-17T12:41:26.292Z,13.88
2022-08-17T12:44:09.633Z,12.77
2022-08-17T12:47:04.848Z,12.98
2022-08-17T12:49:39.587Z,12.88
2022-08-17T12:52:20.057Z,12.25
2022-08-17T12:54:51.636Z,14.05
2022-08-17T12:57:39.264Z,13.45
2022-08-17T13:00:15.809Z,12.52
2022-08-17T13:03:02.785Z,11.75
2022-08-17T13:05:37.610Z,16.33
2022-08-17T13:08:13.882Z,12.35
2022-08-17T13:10:40.755Z,11.57
2022-08-17T13:13:38.617Z,16.08
2022-08-17T13:16:09.681Z,16.08
2022-08-17T13:19:20.499Z,13.80
2022-08-17T13:22:10.565Z,8.43
2022-08-17T13:24:38.720Z,11.23
2022-08-17T13:27:08.944Z,9.93
2022-08-17T13:29:36.797Z,12.45
2022-08-17T13:32:12.934Z,9.15
2022-08-17T13:35:12.591Z,10.65
2022-08-17T13:37:42.679Z,13.15
2022-08-17T13:40:10.100Z,12.85
2022-08-17T13:42:52.826Z,9.43
2022-08-17T13:45:35.390Z,15.68
2022-08-17T13:48:14.569Z,13.85
2022-08-17T13:50:46.320Z,13.02
2022-08-17T13:53:17.388Z,11.77
2022-08-17T13:56:02.634Z,14.32
2022-08-17T13:58:34.712Z,12.30
2022-08-17T14:01:30.203Z,10.80
2022-08-17T14:03:58.531Z,11.57
2022-08-17T14:06:51.799Z,13.75
2022-08-17T14:09:13.981Z,17.05
2022-08-17T14:11:41.757Z,12.15
2022-08-17T14:14:08.750Z,11.68
2022-08-17T14:16:35.641Z,11.63
2022-08-17T14:19:02.657Z,9.38
2022-08-17T14:21:29.942Z,10.23
2022-08-17T14:24:01.097Z,7.22
2022-08-17T14:26:28.987Z,5.20
2022-08-17T14:28:57.111Z,5.32
2022-08-17T14:31:25.049Z,6.43
2022-08-17T14:33:52.301Z,5.82
2022-08-17T14:36:19.586Z,3.83
2022-08-17T14:38:46.650Z,6.43
2022-08-17T14:41:21.475Z,3.80
2022-08-17T14:43:50.143Z,4.15
2022-08-17T14:46:17.358Z,5.40
2022-08-17T14:48:44.527Z,5.90
2022-08-17T14:51:12.213Z,5.07
2022-08-17T14:53:40.439Z,6.53
2022-08-17T14:56:07.562Z,10.55
2022-08-17T14:58:34.509Z,6.35
2022-08-17T15:01:01.638Z,6.78
2022-08-17T15:03:28.635Z,7.50
2022-08-17T15:05:55.548Z,6.05
2022-08-17T15:08:22.533Z,6.22
2022-08-17T15:10:52.548Z,6.32
2022-08-17T15:13:25.161Z,4.95
2022-08-17T15:15:52.419Z,5.65
2022-08-17T15:18:19.402Z,4.95
2022-08-17T15:20:48.602Z,9.02
2022-08-17T15:23:16.874Z,4.97
2022-08-17T15:25:43.956Z,7.15
2022-08-17T15:28:12.130Z,5.20
2022-08-17T15:30:43.269Z,6.00
2022-08-17T15:33:21.117Z,5.88
2022-08-17T15:35:51.779Z,5.00
2022-08-17T15:38:18.637Z,8.52
2022-08-17T15:40:48.975Z,8.05
2022-08-17T15:43:22.024Z,7.32
2022-08-17T15:46:00.140Z,9.50
2022-08-17T15:48:43.407Z,8.00
2022-08-17T15:51:30.685Z,10.23
2022-08-17T15:54:04.237Z,8.98
2022-08-17T15:56:31.730Z,8.27
2022-08-17T15:58:59.228Z,7.63
2022-08-17T16:02:24.775Z,6.72
2022-08-17T16:04:29.639Z,4.70
2022-08-17T16:06:57.632Z,2.85
2022-08-17T16:09:24.555Z,3.78
2022-08-17T16:11:52.065Z,4.72
2022-08-17T16:14:22.692Z,3.75
2022-08-17T16:16:51.182Z,3.42
2022-08-17T16:19:18.041Z,2.13
2022-08-17T16:21:44.977Z,2.88
2022-08-17T16:24:12.691Z,3.47
2022-08-17T16:26:40.814Z,3.72
2022-08-17T16:29:07.942Z,2.92
2022-08-17T16:31:36.161Z,2.17
2022-08-17T16:34:17.899Z,2.30
2022-08-17T16:36:55.434Z,4.60
2022-08-17T16:39:27.085Z,2.70
2022-08-17T16:41:54.551Z,6.93
2022-08-17T16:44:21.523Z,5.35
2022-08-17T16:46:48.654Z,5.60
2022-08-17T16:49:24.430Z,5.28
2022-08-17T16:52:03.511Z,4.72
2022-08-17T16:54:30.337Z,3.53
2022-08-17T16:56:57.230Z,6.13
2022-08-17T16:59:31.290Z,4.45
2022-08-17T17:02:10.802Z,3.25
2022-08-17T17:04:45.565Z,3.42
2022-08-17T17:07:21.392Z,3.63
2022-08-17T17:09:49.027Z,2.38
2022-08-17T17:12:18.503Z,4.40
2022-08-17T17:14:45.577Z,4.85
2022-08-17T17:17:34.161Z,5.32
2022-08-17T17:20:03.398Z,4.93
2022-08-17T17:22:41.357Z,5.88
2022-08-17T17:25:26.154Z,4.13
2022-08-17T17:28:10.461Z,5.68
2022-08-17T17:31:17.614Z,5.03
2022-08-17T17:34:04.974Z,5.47
2022-08-17T17:36:38.574Z,9.85
2022-08-17T17:39:08.778Z,5.07
2022-08-17T17:41:57.410Z,6.75
2022-08-17T17:44:59.167Z,4.55
2022-08-17T17:47:26.757Z,5.55
2022-08-17T17:49:53.768Z,7.63
2022-08-17T17:52:45.357Z,5.60
2022-08-17T17:55:43.758Z,6.55
2022-08-17T17:58:22.692Z,5.47
2022-08-17T18:01:19.485Z,6.25
2022-08-17T18:03:59.172Z,6.00
2022-08-17T18:06:29.671Z,6.50
2022-08-17T18:09:12.365Z,7.70
2022-08-17T18:12:14.714Z,6.07
2022-08-17T18:15:24.741Z,7.25
2022-08-17T18:18:10.484Z,5.82
2022-08-17T18:20:53.757Z,7.90
2022-08-17T18:23:28.084Z,6.82
2022-08-17T18:25:55.864Z,7.28
2022-08-17T18:28:30.799Z,5.90
2022-08-17T18:31:09.713Z,10.70
2022-08-17T18:33:38.246Z,8.70
2022-08-17T18:36:06.092Z,11.55
2022-08-17T18:38:34.344Z,8.60
2022-08-17T18:41:23.627Z,9.85
2022-08-17T18:44:04.644Z,7.68
2022-08-17T18:46:35.478Z,8.10
2022-08-17T18:49:07.696Z,8.10
2022-08-17T18:51:40.511Z,10.57
2022-08-17T18:54:25.785Z,9.77
2022-08-17T18:56:56.708Z,8.85
2022-08-17T18:59:28.474Z,10.75
2022-08-17T19:02:38.687Z,9.55
2022-08-17T19:05:34.643Z,9.50
2022-08-17T19:08:29.597Z,11.18
2022-08-17T19:11:19.048Z,9.02
2022-08-17T19:14:10.340Z,6.38
2022-08-17T19:16:52.124Z,9.77
2022-08-17T19:19:27.776Z,8.88
2022-08-17T19:21:59.071Z,8.02
2022-08-17T19:24:27.657Z,12.30
2022-08-17T19:27:21.434Z,7.97
2022-08-17T19:30:02.754Z,7.47
2022-08-17T19:32:34.790Z,9.48
2022-08-17T19:35:02.755Z,9.05
2022-08-17T19:37:49.533Z,8.02
2022-08-17T19:40:52.971Z,9.10
2022-08-17T19:43:35.801Z,6.80
2022-08-17T19:46:56.091Z,7.93
2022-08-17T19:49:58.545Z,7.40
2022-08-17T19:52:49.362Z,5.18
2022-08-17T19:55:33.152Z,6.75
2022-08-17T19:58:05.611Z,7.40
2022-08-17T20:00:33.809Z,7.82
2022-08-17T20:03:16.178Z,4.82
2022-08-17T20:06:12.048Z,5.95
2022-08-17T20:08:45.758Z,9.05
2022-08-17T20:11:23.454Z,7.63
2022-08-17T20:13:56.715Z,6.75
2022-08-17T20:16:24.659Z,7.95
2022-08-17T20:19:22.298Z,7.88
2022-08-17T20:22:11.310Z,9.13
2022-08-17T20:25:02.492Z,11.65
2022-08-17T20:27:32.150Z,7.03
2022-08-17T20:30:10.400Z,6.72
2022-08-17T20:32:51.980Z,6.70
2022-08-17T20:35:22.840Z,9.32
2022-08-17T20:38:10.966Z,7.25
2022-08-17T20:41:01.097Z,10.45
2022-08-17T20:43:33.868Z,8.57
2022-08-17T20:46:12.647Z,8.07
2022-08-17T20:48:43.084Z,7.93
2022-08-17T20:51:16.447Z,9.02
2022-08-17T20:53:53.674Z,11.95
2022-08-17T20:56:43.146Z,9.32
2022-08-17T20:59:33.344Z,9.27
2022-08-17T21:02:08.869Z,10.48
2022-08-17T21:04:52.941Z,10.13
2022-08-17T21:07:22.911Z,12.55
2022-08-17T21:09:50.805Z,11.63
2022-08-17T21:12:38.829Z,11.82
2022-08-17T21:15:08.338Z,11.60
2022-08-17T21:17:59.001Z,12.40
2022-08-17T21:20:39.104Z,8.13
2022-08-17T21:23:27.990Z,8.98
2022-08-17T21:26:15.186Z,12.43
2022-08-17T21:29:30.402Z,8.90
2022-08-17T21:32:05.227Z,11.02
2022-08-17T21:34:43.149Z,7.15
2022-08-17T21:37:25.085Z,10.77
2022-08-17T21:39:56.336Z,12.57
2022-08-17T21:42:31.696Z,10.30
2022-08-17T21:45:08.359Z,9.93
2022-08-17T21:47:35.383Z,10.32
2022-08-17T21:50:20.460Z,8.73
2022-08-17T21:52:48.038Z,8.85
2022-08-17T21:55:21.536Z,14.45
2022-08-17T21:57:52.779Z,8.38
2022-08-17T22:00:32.215Z,7.88
2022-08-17T22:03:00.579Z,13.68
2022-08-17T22:05:30.053Z,8.48
2022-08-17T22:08:02.425Z,9.98
2022-08-17T22:10:43.770Z,8.98
2022-08-17T22:13:21.379Z,9.30
2022-08-17T22:15:50.035Z,13.18
2022-08-17T22:18:27.332Z,9.15
2022-08-17T22:20:56.496Z,11.23
2022-08-17T22:23:51.840Z,10.10
2022-08-17T22:26:19.300Z,13.52
2022-08-17T22:28:47.870Z,10.80
2022-08-17T22:31:28.599Z,9.77
2022-08-17T22:34:00.052Z,12.48
2022-08-17T22:36:37.163Z,9.80
2022-08-17T22:39:08.223Z,10.73
2022-08-17T22:41:43.009Z,9.90
2022-08-17T22:44:15.538Z,15.80
2022-08-17T22:46:59.189Z,10.95
2022-08-17T22:49:36.884Z,12.43
2022-08-17T22:52:23.687Z,10.32
2022-08-17T22:55:32.740Z,11.05
2022-08-17T22:58:19.055Z,12.70
2022-08-17T23:00:47.550Z,8.18
2022-08-17T23:03:15.660Z,12.32
2022-08-17T23:05:44.939Z,9.90
2022-08-17T23:08:13.474Z,10.07
2022-08-17T23:10:41.451Z,17.02
2022-08-17T23:13:11.957Z,10.07
2022-08-17T23:15:40.240Z,11.70
2022-08-17T23:18:07.421Z,15.45
2022-08-17T23:20:35.954Z,9.82
2022-08-17T23:23:04.748Z,9.18
2022-08-17T23:25:32.353Z,15.15
2022-08-17T23:28:01.710Z,9.98
2022-08-17T23:30:30.709Z,11.90
2022-08-17T23:33:03.477Z,10.88
2022-08-17T23:35:39.637Z,11.13
2022-08-17T23:38:08.899Z,6.10
2022-08-17T23:40:35.697Z,9.70
2022-08-17T23:43:04.563Z,10.70
2022-08-17T23:45:36.762Z,10.48
2022-08-17T23:48:06.403Z,11.43
2022-08-17T23:50:33.652Z,8.82
2022-08-17T23:53:03.003Z,6.75
2022-08-17T23:55:34.988Z,8.98
2022-08-17T23:58:05.392Z,10.93
